Airfield :
LOGIN :

Register | Disclaimer

   EN    FR    IT 

 










Legend :    VFR   Marginal VFR   IFR   Intensive IFR   Very Intensive IFR
Visi :
Ceiling :
>= 8 km
>= 3000ft
5 to 8 km
1000 to 3000 ft
1500m to 5 km
500 to 1000 ft
800 to 1500m
200 to 500 ft
< 800m
< 200 ft
Symbols :   Thunderstorms  Fog  Heavy snow  Heavy precipitations  Wind > 20 kt
SIGMETs :     Misc.  Thunderstorms  Icing  Turbulence  Mountain Waves  Volcanic Ashes







- Airport Elevation : 1197 ft
- IATA code : SPM


ETAD - Spangdahlem Ab

CURRENT METAR :
  • 121056Z AUTO 00000KT 9999 FEW011 OVC016 02/00 A3022 RMK AO2 SLP243 T00160001 $

EXPIRED METARs :
  • 121036Z AUTO 00000KT 9999 FEW012 BKN017 01/00 A3023 RMK AO2 SLP246 $
  • 121026Z AUTO 14003KT 9999 BKN017 02/00 A3023 RMK AO2 SLP246 $
  • 121011Z AUTO 00000KT 9999 FEW012 02/00 A3023 RMK AO2 SLP244 $
  • 120956Z AUTO 00000KT 9999 SCT013 BKN023 02/00 A3023 RMK AO2 CIG 013V023 CIG 022 RWY23 SLP244 T00151004 $
  • 120934Z AUTO 00000KT 9999 FEW013 OVC024 01/M01 A3023 RMK AO2 CIG 023 RWY23 SLP246 $
  • 120856Z AUTO 00000KT 9999 FEW017 BKN023 01/M01 A3023 RMK AO2 CIG 016V023 BKN V OVC SLP246 T00051011 51005 $
  • 120841Z AUTO 01004KT 9999 BKN015 OVC022 00/M01 A3023 RMK AO2 BKN V OVC SLP248 $

TAF AMD TAF ETAD
Valid from the 12 at 09:00 until the 13 at 11:00 UTC


120930Z 1209/1311 03006KT 6000 BR SCT015 BKN025 QNH3022INS
BECMG 1221/1222 08006KT 5000 BR BKN010 QNH3007INS
BECMG 1308/1309 08012G20KT 9999 NSW FEW030 QNH3007INS TX03/1213Z TNM02/1303Z
No reported NOTAMs for that airfield.



MET'MAP, your aeronautical weather chart ! - Copyright ORBIFLY December 2007 - Disclaimer

ORBIFLY MET'MAP TEAM :

Programming & Development : Alexandra Zaïnal
Concept & Development : Baudouin d'Aumeries
Co-Development & Prog : Marc-Olivier Méhu
Technical & hardware support : Manuel Goepfert

Contact : metmap@orbifly.com




SOURCES & CREDITS :

   NOAA